createdAt,value
2018-12-15T00:00:12.588Z,0
2018-12-15T00:01:12.600Z,0
2018-12-15T00:02:12.659Z,0
2018-12-15T00:03:12.620Z,0
2018-12-15T00:04:27.293Z,0
2018-12-15T00:05:12.645Z,0
2018-12-15T00:06:12.663Z,0
2018-12-15T00:07:12.419Z,0
2018-12-15T00:08:12.742Z,0
2018-12-15T00:09:27.361Z,0
2018-12-15T00:10:12.705Z,0
2018-12-15T00:11:12.478Z,0
2018-12-15T00:12:12.730Z,0
2018-12-15T00:13:12.743Z,0
2018-12-15T00:14:12.755Z,0
2018-12-15T00:15:12.818Z,0
2018-12-15T00:16:27.441Z,0
2018-12-15T00:17:13.105Z,0
2018-12-15T00:18:12.804Z,0
2018-12-15T00:19:12.812Z,0
2018-12-15T00:20:27.488Z,0
2018-12-15T00:22:12.851Z,0
2018-12-15T00:23:12.866Z,0
2018-12-15T00:24:12.876Z,0
2018-12-15T00:25:12.890Z,0
2018-12-15T00:26:12.900Z,0
2018-12-15T00:27:12.914Z,0
2018-12-15T00:28:12.932Z,0
2018-12-15T00:29:27.600Z,0
2018-12-15T00:30:12.958Z,0
2018-12-15T00:31:27.623Z,0
2018-12-15T00:32:27.687Z,0
2018-12-15T00:33:27.656Z,0
2018-12-15T00:34:13.006Z,0
2018-12-15T00:35:27.673Z,0
2018-12-15T00:36:13.040Z,0
2018-12-15T00:37:13.036Z,0
2018-12-15T00:38:13.098Z,0
2018-12-15T00:39:13.058Z,0
2018-12-15T00:41:13.109Z,0
2018-12-15T00:42:13.096Z,0
2018-12-15T00:43:13.107Z,0
2018-12-15T00:44:13.120Z,0
2018-12-15T00:45:27.796Z,0
2018-12-15T00:46:13.145Z,0
2018-12-15T00:47:18.809Z,0
2018-12-15T00:48:13.172Z,0
2018-12-15T00:49:13.181Z,0
2018-12-15T00:50:13.194Z,0
2018-12-15T00:51:13.206Z,0
2018-12-15T00:52:13.222Z,0
2018-12-15T00:53:13.235Z,0
2018-12-15T00:55:13.256Z,0
2018-12-15T00:56:13.270Z,0
2018-12-15T00:57:13.331Z,0
2018-12-15T00:58:14.363Z,0
2018-12-15T00:59:13.307Z,0
2018-12-15T01:00:27.979Z,0
2018-12-15T01:01:13.334Z,0
2018-12-15T01:02:13.348Z,0
2018-12-15T01:04:13.474Z,0
2018-12-15T01:05:13.436Z,0
2018-12-15T01:06:13.394Z,0
2018-12-15T01:07:28.113Z,0
2018-12-15T01:09:13.426Z,0
2018-12-15T01:10:13.441Z,0
2018-12-15T01:11:13.453Z,0
2018-12-15T01:12:13.463Z,0
2018-12-15T01:13:13.524Z,0
2018-12-15T01:14:13.486Z,0
2018-12-15T01:15:28.164Z,0
2018-12-15T01:16:13.518Z,0
2018-12-15T01:17:13.524Z,0
2018-12-15T01:18:13.536Z,0
2018-12-15T01:19:13.546Z,0
2018-12-15T01:20:13.560Z,0
2018-12-15T01:21:13.572Z,0
2018-12-15T01:22:13.583Z,0
2018-12-15T01:23:28.259Z,0
2018-12-15T01:24:13.611Z,0
2018-12-15T01:25:13.425Z,0
2018-12-15T01:26:13.634Z,0
2018-12-15T01:27:13.646Z,0
2018-12-15T01:28:13.659Z,0
2018-12-15T01:29:13.673Z,0
2018-12-15T01:30:28.347Z,0
2018-12-15T01:31:28.461Z,0
2018-12-15T01:32:13.710Z,0
2018-12-15T01:33:13.725Z,0
2018-12-15T01:34:13.731Z,0
2018-12-15T01:35:13.750Z,0
2018-12-15T01:36:28.419Z,0
2018-12-15T01:38:13.789Z,0
2018-12-15T01:39:28.508Z,0
2018-12-15T01:40:13.807Z,0
2018-12-15T01:41:13.816Z,0
2018-12-15T01:43:13.841Z,0
2018-12-15T01:44:13.900Z,0
2018-12-15T01:45:13.867Z,0
2018-12-15T01:46:13.879Z,0
2018-12-15T01:47:13.892Z,0
2018-12-15T01:48:13.906Z,0
2018-12-15T01:49:13.919Z,0
2018-12-15T01:51:28.603Z,0
2018-12-15T01:52:13.956Z,0
2018-12-15T01:54:13.976Z,0
2018-12-15T01:55:28.652Z,0
2018-12-15T01:56:14.055Z,0
2018-12-15T01:57:14.011Z,0
2018-12-15T01:58:14.043Z,0
2018-12-15T01:59:14.037Z,0
2018-12-15T02:00:14.060Z,0
2018-12-15T02:01:14.115Z,0
2018-12-15T02:03:14.086Z,0
2018-12-15T02:04:14.100Z,0
2018-12-15T02:05:14.109Z,0
2018-12-15T02:06:14.124Z,0
2018-12-15T02:07:14.137Z,0
2018-12-15T02:08:14.148Z,0
2018-12-15T02:09:28.831Z,0
2018-12-15T02:10:28.837Z,0
2018-12-15T02:11:14.186Z,0
2018-12-15T02:12:14.199Z,0
2018-12-15T02:13:14.217Z,0
2018-12-15T02:14:14.225Z,0
2018-12-15T02:15:14.240Z,0
2018-12-15T02:16:14.244Z,0
2018-12-15T02:17:14.263Z,0
2018-12-15T02:18:14.319Z,0
2018-12-15T02:19:14.281Z,0
2018-12-15T02:20:14.296Z,0
2018-12-15T02:21:14.338Z,0
2018-12-15T02:22:14.328Z,0
2018-12-15T02:23:28.995Z,0
2018-12-15T02:24:14.347Z,0
2018-12-15T02:25:29.060Z,0
2018-12-15T02:26:14.367Z,0
2018-12-15T02:27:14.377Z,0
2018-12-15T02:28:14.389Z,0
2018-12-15T02:29:14.402Z,0
2018-12-15T02:30:14.438Z,0
2018-12-15T02:31:14.438Z,0
2018-12-15T02:34:29.130Z,0
2018-12-15T02:35:14.539Z,0
2018-12-15T02:36:14.507Z,0
2018-12-15T02:37:14.503Z,0
2018-12-15T02:38:14.538Z,0
2018-12-15T02:39:14.531Z,0
2018-12-15T02:40:14.540Z,0
2018-12-15T02:41:15.036Z,0
2018-12-15T02:42:29.225Z,0
2018-12-15T02:43:14.580Z,0
2018-12-15T02:44:14.667Z,0
2018-12-15T02:45:14.651Z,0
2018-12-15T02:46:14.713Z,0
2018-12-15T02:47:14.632Z,0
2018-12-15T02:48:14.640Z,0
2018-12-15T02:49:14.651Z,0
2018-12-15T02:50:29.427Z,0
2018-12-15T02:51:14.675Z,0
2018-12-15T02:52:29.347Z,0
2018-12-15T02:53:29.374Z,0
2018-12-15T02:54:29.385Z,0
2018-12-15T02:55:14.731Z,0
2018-12-15T02:56:29.400Z,0
2018-12-15T02:58:29.425Z,0
2018-12-15T02:59:14.773Z,0
2018-12-15T03:00:14.784Z,0
2018-12-15T03:01:14.796Z,0
2018-12-15T03:02:14.806Z,0
2018-12-15T03:03:14.815Z,0
2018-12-15T03:04:14.828Z,0
2018-12-15T03:05:14.847Z,0
2018-12-15T03:06:29.518Z,0
2018-12-15T03:07:29.528Z,0
2018-12-15T03:08:14.930Z,0
2018-12-15T03:09:14.901Z,0
2018-12-15T03:10:14.917Z,0
2018-12-15T03:11:14.916Z,0
2018-12-15T03:12:14.931Z,0
2018-12-15T03:13:14.950Z,0
2018-12-15T03:14:29.616Z,0
2018-12-15T03:15:14.965Z,0
2018-12-15T03:17:14.993Z,0
2018-12-15T03:18:14.996Z,0
2018-12-15T03:19:15.028Z,0
2018-12-15T03:20:15.024Z,0
2018-12-15T03:21:15.077Z,0
2018-12-15T03:22:15.095Z,0
2018-12-15T03:23:29.722Z,0
2018-12-15T03:24:15.079Z,0
2018-12-15T03:25:14.835Z,0
2018-12-15T03:26:15.099Z,0
2018-12-15T03:27:29.826Z,0
2018-12-15T03:29:15.132Z,0
2018-12-15T03:30:44.476Z,0
2018-12-15T03:31:15.169Z,0
2018-12-15T03:32:29.840Z,0
2018-12-15T03:33:15.185Z,0
2018-12-15T03:34:15.199Z,0
2018-12-15T03:35:15.206Z,0
2018-12-15T03:36:15.224Z,0
2018-12-15T03:37:15.230Z,0
2018-12-15T03:38:29.956Z,0
2018-12-15T03:39:15.257Z,0
2018-12-15T03:40:15.264Z,0
2018-12-15T03:41:29.967Z,0
2018-12-15T03:42:15.349Z,0
2018-12-15T03:43:15.312Z,0
2018-12-15T03:44:15.353Z,0
2018-12-15T03:45:29.992Z,0
2018-12-15T03:46:30.011Z,0
2018-12-15T03:47:15.353Z,0
2018-12-15T03:48:15.433Z,0
2018-12-15T03:49:15.396Z,0
2018-12-15T03:50:15.397Z,0
2018-12-15T03:51:15.406Z,0
2018-12-15T03:52:15.428Z,0
2018-12-15T03:53:15.431Z,0
2018-12-15T03:54:30.108Z,0
2018-12-15T03:55:15.469Z,0
2018-12-15T03:56:30.237Z,0
2018-12-15T03:58:15.497Z,0
2018-12-15T03:59:15.522Z,0
2018-12-15T04:00:15.525Z,0
2018-12-15T04:01:15.589Z,0
2018-12-15T04:02:15.541Z,0
2018-12-15T04:03:30.219Z,0
2018-12-15T04:04:15.572Z,0
2018-12-15T04:05:15.584Z,0
2018-12-15T04:06:15.595Z,0
2018-12-15T04:07:15.621Z,0
2018-12-15T04:08:15.617Z,0
2018-12-15T04:09:30.336Z,0
2018-12-15T04:10:15.650Z,0
2018-12-15T04:11:15.699Z,0
2018-12-15T04:12:15.666Z,0
2018-12-15T04:13:15.675Z,0
2018-12-15T04:14:30.350Z,0
2018-12-15T04:15:15.708Z,0
2018-12-15T04:17:30.388Z,0
2018-12-15T04:18:15.738Z,0
2018-12-15T04:19:15.751Z,0
2018-12-15T04:20:30.428Z,0
2018-12-15T04:21:15.782Z,0
2018-12-15T04:22:30.450Z,0
2018-12-15T04:23:15.807Z,0
2018-12-15T04:24:15.815Z,0
2018-12-15T04:25:30.590Z,0
2018-12-15T04:26:15.884Z,0
2018-12-15T04:27:15.848Z,0
2018-12-15T04:28:15.871Z,0
2018-12-15T04:29:15.647Z,0
2018-12-15T04:31:30.570Z,0
2018-12-15T04:33:30.585Z,0
2018-12-15T04:34:15.932Z,0
2018-12-15T04:35:15.950Z,0
2018-12-15T04:36:15.960Z,0
2018-12-15T04:37:16.020Z,0
2018-12-15T04:38:15.988Z,0
2018-12-15T04:39:15.749Z,0
2018-12-15T04:40:16.014Z,0
2018-12-15T04:41:16.014Z,0
2018-12-15T04:42:30.691Z,0
2018-12-15T04:43:16.049Z,0
2018-12-15T04:44:16.067Z,0
2018-12-15T04:45:16.429Z,0
2018-12-15T04:46:16.150Z,0
2018-12-15T04:47:16.109Z,0
2018-12-15T04:48:18.617Z,0
2018-12-15T04:49:30.790Z,0
2018-12-15T04:50:16.127Z,0
2018-12-15T04:51:16.139Z,0
2018-12-15T04:52:16.164Z,0
2018-12-15T04:53:16.167Z,0
2018-12-15T04:54:16.177Z,0
2018-12-15T04:55:16.201Z,0
2018-12-15T04:57:16.323Z,0
2018-12-15T04:58:16.223Z,0
2018-12-15T04:59:16.247Z,0
2018-12-15T05:00:16.258Z,0
2018-12-15T05:01:16.011Z,0
2018-12-15T05:02:30.982Z,0
2018-12-15T05:03:16.286Z,0
2018-12-15T05:04:16.385Z,0
2018-12-15T05:05:45.639Z,0
2018-12-15T05:06:16.417Z,0
2018-12-15T05:07:16.332Z,0
2018-12-15T05:08:16.343Z,0
2018-12-15T05:09:16.359Z,0
2018-12-15T05:10:16.373Z,0
2018-12-15T05:11:16.382Z,0
2018-12-15T05:12:16.398Z,0
2018-12-15T05:13:16.406Z,0
2018-12-15T05:14:31.087Z,0
2018-12-15T05:15:31.091Z,0
2018-12-15T05:16:16.452Z,0
2018-12-15T05:17:16.461Z,0
2018-12-15T05:18:22.914Z,0
2018-12-15T05:20:31.152Z,0
2018-12-15T05:21:16.503Z,0
2018-12-15T05:22:16.514Z,0
2018-12-15T05:23:16.532Z,0
2018-12-15T05:24:16.539Z,0
2018-12-15T05:25:16.551Z,0
2018-12-15T05:26:16.562Z,0
2018-12-15T05:27:16.577Z,0
2018-12-15T05:28:16.616Z,0
2018-12-15T05:29:16.603Z,0
2018-12-15T05:30:31.306Z,0
2018-12-15T05:31:16.635Z,0
2018-12-15T05:32:31.300Z,0
2018-12-15T05:33:16.648Z,0
2018-12-15T05:34:16.666Z,0
2018-12-15T05:35:16.672Z,0
2018-12-15T05:37:16.742Z,0
2018-12-15T05:38:16.711Z,0
2018-12-15T05:39:16.926Z,0
2018-12-15T05:40:16.731Z,0
2018-12-15T05:41:16.758Z,0
2018-12-15T05:42:31.424Z,0
2018-12-15T05:43:16.776Z,0
2018-12-15T05:44:16.782Z,0
2018-12-15T05:45:16.795Z,0
2018-12-15T05:46:16.809Z,0
2018-12-15T05:47:16.821Z,0
2018-12-15T05:48:16.831Z,0
2018-12-15T05:49:16.844Z,0
2018-12-15T05:51:16.865Z,0
2018-12-15T05:52:31.543Z,0
2018-12-15T05:53:16.889Z,0
2018-12-15T05:54:31.575Z,0
2018-12-15T05:55:16.963Z,0
2018-12-15T05:56:16.977Z,0
2018-12-15T05:57:16.938Z,0
2018-12-15T05:58:16.947Z,0
2018-12-15T05:59:16.966Z,0
2018-12-15T06:00:17.031Z,0
2018-12-15T06:01:17.045Z,0
2018-12-15T06:02:17.007Z,0
2018-12-15T06:03:17.009Z,0
2018-12-15T06:04:17.023Z,0
2018-12-15T06:05:31.795Z,0
2018-12-15T06:06:17.051Z,0
2018-12-15T06:08:31.731Z,0
2018-12-15T06:09:17.085Z,0
2018-12-15T06:10:17.094Z,0
2018-12-15T06:11:17.108Z,0
2018-12-15T06:12:17.156Z,0
2018-12-15T06:13:17.126Z,0
2018-12-15T06:14:17.143Z,0
2018-12-15T06:15:17.159Z,0
2018-12-15T06:16:31.899Z,0
2018-12-15T06:17:17.185Z,0
2018-12-15T06:18:17.188Z,0
2018-12-15T06:19:31.861Z,0
2018-12-15T06:20:17.211Z,0
2018-12-15T06:21:17.222Z,0
2018-12-15T06:22:17.234Z,0
2018-12-15T06:23:17.248Z,0
2018-12-15T06:24:31.923Z,0
2018-12-15T06:25:31.698Z,0
2018-12-15T06:26:17.287Z,0
2018-12-15T06:28:17.306Z,0
2018-12-15T06:29:17.318Z,0
2018-12-15T06:30:17.331Z,0
2018-12-15T06:31:17.344Z,0
2018-12-15T06:32:17.464Z,0
2018-12-15T06:33:17.367Z,0
2018-12-15T06:34:17.134Z,0
2018-12-15T06:35:17.410Z,0
2018-12-15T06:36:17.403Z,0
2018-12-15T06:37:32.078Z,0
2018-12-15T06:38:17.431Z,0
2018-12-15T06:39:17.439Z,4
2018-12-15T06:40:32.119Z,4
2018-12-15T06:41:17.462Z,0
2018-12-15T06:42:17.482Z,0
2018-12-15T06:43:17.488Z,4
2018-12-15T06:44:17.500Z,4
2018-12-15T06:45:17.511Z,4
2018-12-15T06:46:17.526Z,4
2018-12-15T06:47:17.595Z,4
2018-12-15T06:48:37.965Z,8
2018-12-15T06:49:17.563Z,8
2018-12-15T06:50:17.575Z,8
2018-12-15T06:51:17.586Z,8
2018-12-15T06:52:17.599Z,12
2018-12-15T06:53:17.622Z,12
2018-12-15T06:55:32.295Z,16
2018-12-15T06:56:17.650Z,16
2018-12-15T06:57:17.712Z,20
2018-12-15T06:58:17.669Z,20
2018-12-15T06:59:17.680Z,24
2018-12-15T07:00:32.359Z,28
2018-12-15T07:01:17.743Z,28
2018-12-15T07:02:17.770Z,28
2018-12-15T07:03:17.730Z,32
2018-12-15T07:04:17.749Z,36
2018-12-15T07:05:32.414Z,36
2018-12-15T07:06:17.766Z,40
2018-12-15T07:07:17.781Z,44
2018-12-15T07:09:17.813Z,52
2018-12-15T07:10:17.809Z,56
2018-12-15T07:12:17.841Z,64
2018-12-15T07:13:17.852Z,68
2018-12-15T07:14:17.670Z,72
2018-12-15T07:15:17.874Z,76
2018-12-15T07:16:17.940Z,84
2018-12-15T07:17:17.898Z,88
2018-12-15T07:18:17.913Z,92
2018-12-15T07:19:17.922Z,100
2018-12-15T07:20:17.989Z,104
2018-12-15T07:21:32.606Z,112
2018-12-15T07:22:17.956Z,116
2018-12-15T07:23:17.970Z,120
2018-12-15T07:24:17.981Z,128
2018-12-15T07:25:18.098Z,132
2018-12-15T07:26:18.001Z,140
2018-12-15T07:27:32.806Z,152
2018-12-15T07:28:18.026Z,156
2018-12-15T07:30:18.051Z,172
2018-12-15T07:31:18.115Z,180
2018-12-15T07:32:18.081Z,184
2018-12-15T07:33:19.569Z,196
2018-12-15T07:34:18.097Z,200
2018-12-15T07:35:18.112Z,208
2018-12-15T07:36:18.124Z,216
2018-12-15T07:37:18.139Z,220
2018-12-15T07:38:32.811Z,224
2018-12-15T07:41:18.186Z,240
2018-12-15T07:42:18.200Z,252
2018-12-15T07:43:32.868Z,264
2018-12-15T07:44:18.220Z,272
2018-12-15T07:45:18.239Z,288
2018-12-15T07:46:18.245Z,296
2018-12-15T07:47:18.257Z,304
2018-12-15T07:48:18.265Z,312
2018-12-15T07:49:32.945Z,316
2018-12-15T07:50:18.341Z,320
2018-12-15T07:51:18.301Z,328
2018-12-15T07:52:33.025Z,348
2018-12-15T07:53:18.325Z,360
2018-12-15T07:54:18.337Z,380
2018-12-15T07:55:18.355Z,408
2018-12-15T07:56:18.469Z,444
2018-12-15T07:57:18.383Z,488
2018-12-15T07:58:18.387Z,520
2018-12-15T07:59:33.063Z,548
2018-12-15T08:01:18.429Z,612
2018-12-15T08:02:19.659Z,628
2018-12-15T08:03:18.446Z,636
2018-12-15T08:04:18.465Z,656
2018-12-15T08:05:18.474Z,680
2018-12-15T08:06:18.489Z,708
2018-12-15T08:07:18.494Z,732
2018-12-15T08:08:18.511Z,752
2018-12-15T08:09:18.520Z,772
2018-12-15T08:10:18.583Z,792
2018-12-15T08:11:18.544Z,812
2018-12-15T08:13:18.569Z,852
2018-12-15T08:14:18.630Z,860
2018-12-15T08:15:33.254Z,864
2018-12-15T08:16:18.607Z,864
2018-12-15T08:17:18.617Z,852
2018-12-15T08:18:18.630Z,848
2018-12-15T08:19:18.644Z,832
2018-12-15T08:20:18.719Z,820
2018-12-15T08:21:18.666Z,812
2018-12-15T08:22:18.675Z,808
2018-12-15T08:23:18.689Z,804
2018-12-15T08:24:18.703Z,812
2018-12-15T08:25:18.748Z,828
2018-12-15T08:26:18.729Z,840
2018-12-15T08:27:18.744Z,856
2018-12-15T08:29:18.762Z,900
2018-12-15T08:30:33.437Z,924
2018-12-15T08:31:18.842Z,940
2018-12-15T08:33:18.812Z,988
2018-12-15T08:34:18.890Z,1008
2018-12-15T08:35:18.837Z,1036
2018-12-15T08:36:18.846Z,1068
2018-12-15T08:37:18.862Z,1112
2018-12-15T08:38:18.925Z,1164
2018-12-15T08:39:18.882Z,1228
2018-12-15T08:40:33.557Z,1316
2018-12-15T08:41:18.910Z,1364
2018-12-15T08:42:18.919Z,1432
2018-12-15T08:43:18.983Z,1544
2018-12-15T08:44:18.996Z,1676
2018-12-15T08:45:18.962Z,1812
2018-12-15T08:46:18.972Z,1924
2018-12-15T08:47:18.783Z,2028
2018-12-15T08:49:19.057Z,2124
2018-12-15T08:50:19.184Z,2116
2018-12-15T08:51:19.033Z,2104
2018-12-15T08:52:19.043Z,2056
2018-12-15T08:54:19.073Z,1920
2018-12-15T08:55:19.082Z,1848
2018-12-15T08:56:19.101Z,1760
2018-12-15T08:59:33.808Z,1572
2018-12-15T09:00:19.151Z,1568
2018-12-15T09:01:19.155Z,1580
2018-12-15T09:02:33.832Z,1604
2018-12-15T09:03:33.849Z,1616
2018-12-15T09:04:19.195Z,1616
2018-12-15T09:05:19.271Z,1620
2018-12-15T09:06:19.215Z,1624
2018-12-15T09:07:19.229Z,1632
2018-12-15T09:08:33.907Z,1652
2018-12-15T09:09:19.257Z,1672
2018-12-15T09:10:19.344Z,1688
2018-12-15T09:11:19.283Z,1684
2018-12-15T09:13:19.308Z,1672
2018-12-15T09:14:19.079Z,1660
2018-12-15T09:15:19.379Z,1664
2018-12-15T09:16:19.342Z,1652
2018-12-15T09:17:19.417Z,1636
2018-12-15T09:18:34.030Z,1604
2018-12-15T09:19:19.390Z,1604
2018-12-15T09:20:19.406Z,1612
2018-12-15T09:21:19.408Z,1628
2018-12-15T09:22:19.419Z,1656
2018-12-15T09:23:19.428Z,1700
2018-12-15T09:24:19.444Z,1740
2018-12-15T09:25:19.462Z,1744
2018-12-15T09:27:19.484Z,1748
2018-12-15T09:28:19.509Z,1752
2018-12-15T09:29:19.507Z,1744
2018-12-15T09:30:20.511Z,1712
2018-12-15T09:31:19.531Z,1676
2018-12-15T09:32:19.540Z,1620
2018-12-15T09:33:19.605Z,1572
2018-12-15T09:34:34.232Z,1524
2018-12-15T09:36:19.593Z,1484
2018-12-15T09:37:19.609Z,1468
2018-12-15T09:38:19.615Z,1456
2018-12-15T09:39:19.636Z,1448
2018-12-15T09:40:19.647Z,1428
2018-12-15T09:41:19.754Z,1384
2018-12-15T09:42:19.671Z,1348
2018-12-15T09:43:19.727Z,1352
2018-12-15T09:44:19.853Z,1348
2018-12-15T09:45:19.705Z,1332
2018-12-15T09:46:19.715Z,1332
2018-12-15T09:47:19.731Z,1332
2018-12-15T09:48:19.742Z,1324
2018-12-15T09:49:25.120Z,1296
2018-12-15T09:50:34.519Z,1296
2018-12-15T09:51:19.793Z,1300
2018-12-15T09:52:19.793Z,1312
2018-12-15T09:54:19.824Z,1360
2018-12-15T09:55:19.827Z,1380
2018-12-15T09:56:19.841Z,1412
2018-12-15T09:57:19.860Z,1420
2018-12-15T09:58:19.869Z,1416
2018-12-15T09:59:34.542Z,1416
2018-12-15T10:01:21.265Z,1440
2018-12-15T10:02:19.918Z,1448
2018-12-15T10:03:34.592Z,1452
2018-12-15T10:05:34.619Z,1460
2018-12-15T10:06:19.977Z,1468
2018-12-15T10:08:19.998Z,1492
2018-12-15T10:09:20.010Z,1508
2018-12-15T10:10:20.023Z,1540
2018-12-15T10:11:20.049Z,1560
2018-12-15T10:12:20.051Z,1572
2018-12-15T10:13:20.107Z,1576
2018-12-15T10:14:20.067Z,1576
2018-12-15T10:15:34.742Z,1588
2018-12-15T10:16:20.090Z,1620
2018-12-15T10:17:34.768Z,1660
2018-12-15T10:18:20.118Z,1672
2018-12-15T10:19:26.545Z,1676
2018-12-15T10:20:20.145Z,1660
2018-12-15T10:22:20.167Z,1668
2018-12-15T10:23:20.183Z,1680
2018-12-15T10:24:20.196Z,1684
2018-12-15T10:25:19.958Z,1684
2018-12-15T10:26:20.217Z,1720
2018-12-15T10:27:20.243Z,1764
2018-12-15T10:28:20.247Z,1764
2018-12-15T10:30:20.319Z,1696
2018-12-15T10:31:20.285Z,1652
2018-12-15T10:32:20.299Z,1652
2018-12-15T10:33:20.307Z,1660
2018-12-15T10:34:34.981Z,1680
2018-12-15T10:35:20.337Z,1684
2018-12-15T10:36:20.345Z,1716
2018-12-15T10:37:35.021Z,1752
2018-12-15T10:38:20.370Z,1728
2018-12-15T10:39:20.380Z,1692
2018-12-15T10:40:20.395Z,1644
2018-12-15T10:41:20.408Z,1636
2018-12-15T10:42:20.988Z,1668
2018-12-15T10:43:20.437Z,1712
2018-12-15T10:44:20.447Z,1780
2018-12-15T10:45:20.457Z,1844
2018-12-15T10:46:20.470Z,1896
2018-12-15T10:48:35.158Z,1844
2018-12-15T10:49:20.512Z,1840
2018-12-15T10:51:20.535Z,1836
2018-12-15T10:52:20.552Z,1796
2018-12-15T10:53:35.223Z,1824
2018-12-15T10:55:20.588Z,1888
2018-12-15T10:56:20.603Z,1864
2018-12-15T10:57:20.609Z,1836
2018-12-15T10:58:20.674Z,1804
2018-12-15T10:59:20.636Z,1772
2018-12-15T11:00:20.653Z,1776
2018-12-15T11:01:35.328Z,1912
2018-12-15T11:02:20.680Z,1988
2018-12-15T11:03:35.352Z,2076
2018-12-15T11:04:20.700Z,2072
2018-12-15T11:05:20.718Z,2096
2018-12-15T11:06:20.780Z,2080
2018-12-15T11:07:20.743Z,2084
2018-12-15T11:08:20.754Z,2052
2018-12-15T11:09:35.426Z,2032
2018-12-15T11:11:20.789Z,2032
2018-12-15T11:12:20.815Z,1960
2018-12-15T11:13:20.813Z,1872
2018-12-15T11:14:20.830Z,1828
2018-12-15T11:15:20.847Z,1816
2018-12-15T11:16:20.871Z,1804
2018-12-15T11:17:20.941Z,1788
2018-12-15T11:18:35.592Z,1736
2018-12-15T11:20:20.912Z,1640
2018-12-15T11:21:20.916Z,1640
2018-12-15T11:23:20.950Z,1632
2018-12-15T11:24:21.007Z,1616
2018-12-15T11:25:35.690Z,1604
2018-12-15T11:26:20.984Z,1600
2018-12-15T11:27:20.996Z,1580
2018-12-15T11:28:21.008Z,1544
2018-12-15T11:29:21.023Z,1524
2018-12-15T11:30:21.038Z,1512
2018-12-15T11:31:21.045Z,1492
2018-12-15T11:32:21.072Z,1472
2018-12-15T11:33:21.076Z,1468
2018-12-15T11:34:35.747Z,1460
2018-12-15T11:35:21.104Z,1460
2018-12-15T11:36:21.129Z,1472
2018-12-15T11:37:21.122Z,1460
2018-12-15T11:38:21.141Z,1452
2018-12-15T11:39:21.169Z,1468
2018-12-15T11:40:35.829Z,1488
2018-12-15T11:41:21.174Z,1428
2018-12-15T11:42:21.190Z,1356
2018-12-15T11:43:21.249Z,1324
2018-12-15T11:44:21.216Z,1300
2018-12-15T11:45:21.230Z,1344
2018-12-15T11:46:21.239Z,1392
2018-12-15T11:47:21.261Z,1364
2018-12-15T11:48:21.278Z,1420
2018-12-15T11:49:21.273Z,1524
2018-12-15T11:50:21.290Z,1648
2018-12-15T11:51:21.303Z,1660
2018-12-15T11:52:21.314Z,1684
2018-12-15T11:55:21.361Z,1724
2018-12-15T11:56:21.373Z,1684
2018-12-15T11:57:21.382Z,1628
2018-12-15T11:58:21.391Z,1600
2018-12-15T11:59:21.440Z,1628
2018-12-15T12:00:21.480Z,1680
2018-12-15T12:01:21.428Z,1684
2018-12-15T12:02:21.447Z,1656
2018-12-15T12:03:21.456Z,1616
2018-12-15T12:04:21.471Z,1588
2018-12-15T12:05:21.486Z,1568
2018-12-15T12:06:21.497Z,1548
2018-12-15T12:07:21.527Z,1524
2018-12-15T12:08:21.526Z,1552
2018-12-15T12:09:21.534Z,1584
2018-12-15T12:10:36.207Z,1636
2018-12-15T12:11:21.557Z,1660
2018-12-15T12:12:36.719Z,1672
2018-12-15T12:13:21.602Z,1652
2018-12-15T12:14:21.600Z,1492
2018-12-15T12:15:21.667Z,1196
2018-12-15T12:16:36.293Z,1100
2018-12-15T12:17:21.643Z,1216
2018-12-15T12:18:21.648Z,1332
2018-12-15T12:19:21.662Z,1288
2018-12-15T12:20:36.341Z,1236
2018-12-15T12:21:21.688Z,1260
2018-12-15T12:22:21.705Z,1280
2018-12-15T12:23:36.376Z,1264
2018-12-15T12:24:21.729Z,1292
2018-12-15T12:26:36.412Z,1164
2018-12-15T12:28:36.438Z,1004
2018-12-15T12:29:21.849Z,1024
2018-12-15T12:30:21.806Z,1112
2018-12-15T12:31:21.869Z,1228
2018-12-15T12:32:21.928Z,1324
2018-12-15T12:33:36.510Z,1380
2018-12-15T12:34:21.853Z,1372
2018-12-15T12:35:21.865Z,1320
2018-12-15T12:36:21.944Z,1256
2018-12-15T12:37:21.944Z,1240
2018-12-15T12:38:21.906Z,1284
2018-12-15T12:39:21.921Z,1380
2018-12-15T12:40:21.938Z,1456
2018-12-15T12:41:21.949Z,1424
2018-12-15T12:42:21.974Z,1336
2018-12-15T12:43:21.978Z,1268
2018-12-15T12:44:36.649Z,1204
2018-12-15T12:45:22.097Z,1188
2018-12-15T12:46:22.010Z,1236
2018-12-15T12:47:22.030Z,1300
2018-12-15T12:48:36.451Z,1344
2018-12-15T12:49:36.765Z,1396
2018-12-15T12:51:36.742Z,1480
2018-12-15T12:52:22.095Z,1560
2018-12-15T12:53:22.105Z,1636
2018-12-15T12:54:21.872Z,1648
2018-12-15T12:55:22.135Z,1636
2018-12-15T12:57:22.157Z,1716
2018-12-15T12:58:22.218Z,1756
2018-12-15T12:59:22.177Z,1780
2018-12-15T13:00:36.855Z,1768
2018-12-15T13:01:22.209Z,1776
2018-12-15T13:02:22.218Z,1792
2018-12-15T13:03:22.229Z,1784
2018-12-15T13:04:22.247Z,1780
2018-12-15T13:05:22.258Z,1800
2018-12-15T13:06:22.268Z,1824
2018-12-15T13:07:22.285Z,1836
2018-12-15T13:08:22.300Z,1804
2018-12-15T13:09:36.971Z,1752
2018-12-15T13:10:22.323Z,1716
2018-12-15T13:11:22.335Z,1668
2018-12-15T13:12:22.348Z,1620
2018-12-15T13:13:37.025Z,1576
2018-12-15T13:14:22.378Z,1552
2018-12-15T13:15:37.049Z,1568
2018-12-15T13:16:22.400Z,1580
2018-12-15T13:17:22.417Z,1580
2018-12-15T13:18:22.437Z,1556
2018-12-15T13:19:22.442Z,1524
2018-12-15T13:20:22.460Z,1476
2018-12-15T13:21:22.467Z,1436
2018-12-15T13:22:22.486Z,1400
2018-12-15T13:23:22.489Z,1388
2018-12-15T13:24:22.506Z,1376
2018-12-15T13:25:22.632Z,1336
2018-12-15T13:26:22.535Z,1268
2018-12-15T13:27:22.547Z,1216
2018-12-15T13:29:22.580Z,1208
2018-12-15T13:30:22.585Z,1240
2018-12-15T13:31:22.595Z,1244
2018-12-15T13:32:22.605Z,1160
2018-12-15T13:33:22.637Z,996
2018-12-15T13:34:22.634Z,900
2018-12-15T13:35:22.650Z,848
2018-12-15T13:36:22.683Z,804
2018-12-15T13:37:22.673Z,756
2018-12-15T13:38:22.691Z,752
2018-12-15T13:39:22.751Z,792
2018-12-15T13:40:22.713Z,856
2018-12-15T13:41:22.722Z,900
2018-12-15T13:42:22.739Z,920
2018-12-15T13:43:22.761Z,908
2018-12-15T13:45:22.779Z,928
2018-12-15T13:46:22.787Z,972
2018-12-15T13:47:37.464Z,980
2018-12-15T13:48:23.674Z,956
2018-12-15T13:49:22.827Z,912
2018-12-15T13:50:22.840Z,860
2018-12-15T13:51:22.853Z,820
2018-12-15T13:53:22.884Z,724
2018-12-15T13:54:22.889Z,652
2018-12-15T13:55:22.911Z,572
2018-12-15T13:56:22.916Z,500
2018-12-15T13:57:22.980Z,444
2018-12-15T13:58:22.951Z,400
2018-12-15T13:59:22.956Z,368
2018-12-15T14:00:23.011Z,356
2018-12-15T14:01:22.988Z,344
2018-12-15T14:02:23.046Z,328
2018-12-15T14:03:37.669Z,300
2018-12-15T14:04:23.025Z,288
2018-12-15T14:05:23.031Z,288
2018-12-15T14:06:23.100Z,304
2018-12-15T14:07:23.065Z,316
2018-12-15T14:08:23.072Z,328
2018-12-15T14:09:23.135Z,336
2018-12-15T14:10:23.098Z,324
2018-12-15T14:11:23.118Z,300
2018-12-15T14:12:23.125Z,272
2018-12-15T14:13:23.137Z,268
2018-12-15T14:15:23.164Z,260
2018-12-15T14:16:37.838Z,276
2018-12-15T14:17:23.188Z,284
2018-12-15T14:18:23.202Z,288
2018-12-15T14:19:37.925Z,300
2018-12-15T14:21:23.240Z,296
2018-12-15T14:22:23.253Z,280
2018-12-15T14:23:23.266Z,268
2018-12-15T14:24:23.280Z,264
2018-12-15T14:25:23.343Z,256
2018-12-15T14:26:23.303Z,232
2018-12-15T14:27:24.438Z,220
2018-12-15T14:28:37.991Z,200
2018-12-15T14:29:23.340Z,192
2018-12-15T14:30:38.015Z,176
2018-12-15T14:31:38.027Z,168
2018-12-15T14:32:38.111Z,160
2018-12-15T14:33:23.406Z,156
2018-12-15T14:34:23.416Z,148
2018-12-15T14:35:38.083Z,140
2018-12-15T14:37:23.447Z,128
2018-12-15T14:38:23.507Z,124
2018-12-15T14:39:23.529Z,116
2018-12-15T14:40:23.537Z,112
2018-12-15T14:41:23.501Z,112
2018-12-15T14:42:23.515Z,116
2018-12-15T14:43:23.526Z,120
2018-12-15T14:44:38.197Z,116
2018-12-15T14:46:23.676Z,112
2018-12-15T14:47:23.574Z,108
2018-12-15T14:49:23.600Z,88
2018-12-15T14:50:38.275Z,76
2018-12-15T14:51:23.625Z,68
2018-12-15T14:52:23.638Z,64
2018-12-15T14:53:23.750Z,52
2018-12-15T14:54:23.668Z,48
2018-12-15T14:55:23.431Z,40
2018-12-15T14:56:23.697Z,36
2018-12-15T14:57:38.368Z,28
2018-12-15T14:58:23.714Z,28
2018-12-15T14:59:23.727Z,24
2018-12-15T15:03:23.843Z,20
2018-12-15T15:04:38.456Z,12
2018-12-15T15:05:23.810Z,12
2018-12-15T15:08:23.848Z,12
2018-12-15T15:09:23.912Z,8
2018-12-15T15:10:23.867Z,8
2018-12-15T15:11:23.881Z,4
2018-12-15T15:12:23.892Z,4
2018-12-15T15:13:23.906Z,4
2018-12-15T15:14:23.919Z,4
2018-12-15T15:15:38.597Z,4
2018-12-15T15:16:38.606Z,0
2018-12-15T15:17:38.623Z,0
2018-12-15T15:18:23.971Z,4